KADU

Audubon County Airport

Audubon, Iowa, USA
METAR KADU 201415Z AUTO 33011G16KT 10SM BKN014 21/17 A2992 RMK AO2
Observed Flight Rules
Jul-20 @ 14:15 UTC (22 minutes ago) Marginal Visual Flight Rules
Wind Visibility Clouds
330° at 11 knots
 Gusting to 16 knots
10 miles
  • Broken at 1,400' AGL
Temperatures Readings
Current 21°C / 70°F
Dewpoint 17°C / 63°F
Humidity 78%
Altimeter 29.92" Hg
Pressure 1013 hPa
Elevation 392
METAR KADU 201415Z AUTO 33011G16KT 10SM BKN014 21/17 A2992 RMK AO2
Observed Flight Rules
Jul-20 @ 14:15 UTC
(22 minutes ago)
MVFR
Wind Visibility
330° at 11 knots
 Gusting to 16 knots
10 miles
Clouds
  • Broken at 1,400' AGL
Temperature Dewpoint
21°C / 70°F 17°C / 63°F
Humidity Altimeter Pressure
78% 29.92" Hg 1013 hPa